ADVERTISEMENT

iOS app on App Store Android app on Google Play

2018 \ Hansen Dam Triathlon - August 19, 2018

Notes Pages Download Filter By
  [1] 2




Keyword Exact  
Division

Bib Division Last Name First Name Division Place Gun Swim T1 Bike T2 Run Overall City State
57 40-44 Male Heiden Quentin 1 02:01:19 00:23:03 00:00:48 00:52:10 00:00:00 00:00:00 1 Redondo Beach CA
124 35-39 Male Sullivan Jeff 1 02:03:11 00:24:00 00:00:48 00:51:37 00:00:38 00:46:05 2 Canoga Park CA
35 35-39 Male Cooper Alistair 2 02:06:26 00:27:54 00:00:47 00:50:42 00:01:12 00:45:50 3 Van Nuys CA
13 35-39 Male Booth Jason 3 02:08:20 00:29:34 00:00:35 00:50:37 00:01:01 00:46:30 4 Santa Monica CA
11 45-49 Male Birdwell Eric 1 02:12:04 00:23:41 00:00:48 00:51:40 00:01:02 00:54:51 5 Ventura CA
466 45-49 Male Kojima Hideharu 2 02:16:56 00:24:16 00:00:50 01:02:04 00:00:00 00:00:00 6 Redondo Beach CA
58 40-44 Male Hernandez Juan 2 02:17:30 00:25:41 00:01:15 00:57:00 00:01:34 00:51:59 7 Fullerton CA
15 50-54 Male Brandt David 1 02:17:43 00:25:00 00:01:15 00:55:14 00:01:30 00:54:43 8 Rancho Palos Verdes CA
75 55-59 Female Macdonald Maureen 1 02:18:03 00:24:11 00:01:18 00:58:09 00:01:11 00:53:12 9 Sherman Oaks CA
60 15-17 Male Hutchin Ethan 1 02:18:25 00:27:15 00:01:34 01:03:22 00:01:25 00:44:48 10 Burbank CA
25 18-24 Male Campos Adan 1 02:19:02 00:31:13 00:01:25 00:54:40 00:01:22 00:50:20 11 Sylmar CA
86 50-54 Male Merhaut Donald 2 02:19:10 00:29:42 00:02:06 00:55:30 00:02:24 00:49:26 12 Riverside CA
143 25-29 Female Wheeler Emily 1 02:19:19 00:30:01 00:01:09 00:55:16 00:01:14 00:51:37 13 Granada Hills CA
453 35-39 Male You Micah 4 02:20:47 00:24:48 00:00:48 01:02:05 00:01:00 00:52:04 14 Santa Ana CA
16 18-24 Female Brandt Lorna 1 02:21:43 00:29:27 00:01:54 01:01:26 00:01:38 00:47:16 15 Rch Palos Vrd CA
52 45-49 Male Givens Barry 3 02:21:49 00:38:42 00:02:39 00:54:27 00:01:55 00:44:04 16 Palmdale CA
110 40-44 Male Sandoval James 3 02:22:09 00:37:30 00:01:04 00:55:20 00:01:04 00:47:09 17 Aliso Viejo CA
461 30-34 Male Gil Vince 1 02:23:15 00:23:37 00:00:54 00:58:11 00:01:05 00:59:26 18 Sylmar CA
462 55-59 Male Reese Willy 1 02:24:25 00:23:35 00:02:51 01:06:44 00:00:52 00:50:21 19 Newport Beach CA
119 55-59 Male Soash James 2 02:24:53 00:29:30 00:01:27 00:56:21 00:00:56 00:56:37 20 Granada Hills CA
78 40-44 Male Makino Jo 4 02:25:27 00:30:33 00:00:59 00:56:54 00:01:14 00:55:46 21 Burbank CA
17 45-49 Male Brewer Matt 4 02:25:41 00:34:57 00:00:48 00:53:48 00:00:53 00:55:13 22 Altadena CA
27 55-59 Male Carlson Martin 3 02:28:16 00:29:23 00:00:51 00:58:26 00:01:16 00:58:17 23 Los Angeles CA
63 30-34 Female Jorden Stephanie 1 02:28:32 00:29:28 00:01:34 01:00:19 00:01:10 00:55:59 24 Westlake Vlg CA
43 50-54 Male Farfan Fausto 3 02:28:37 00:33:46 00:01:27 00:57:47 00:01:40 00:53:55 25 Agoura Hills CA
70 30-34 Male Levy Garett 2 02:28:55 00:34:36 00:02:25 01:03:32 00:01:22 00:46:58 26 Santa Monica CA
108 35-39 Male Rusch Nate 5 02:29:46 00:32:34 00:01:18 01:02:32 00:01:09 00:52:11 27 Pasadena CA
393 50-54 Male Rodriguez Noel 4 02:30:50 00:31:02 00:01:51 00:59:09 00:02:04 00:56:43 28 La Canada CA
96 18-24 Male Paydar Caleb 2 02:31:10 00:36:30 00:01:55 00:56:46 00:01:47 00:54:10 29 Los Angeles CA
66 40-44 Male Kirkland Aaron 5 02:31:16 00:32:55 00:01:22 01:05:39 00:01:06 00:50:12 30 Santa Clarita CA
9 45-49 Male Bender Rolf 5 02:32:25 00:32:52 00:01:10 01:00:00 00:01:12 00:57:09 31 Redondo Beach CA
82 30-34 Female Mayorga Aletta 2 02:36:21 00:31:08 00:02:37 01:03:16 00:01:59 00:57:19 32 Los Angeles CA
99 35-39 Male Pisuttipong Arthid 6 02:36:53 00:38:14 00:02:30 00:54:42 00:02:30 00:58:55 33 Winnetka CA
134 30-34 Male Turner Evan 3 02:38:08 00:34:15 00:01:58 01:01:20 00:00:59 00:59:33 34 San Francisco CA
140 40-44 Male Villanueva Rafael 6 02:38:21 00:30:32 00:03:10 01:05:54 00:01:47 00:56:57 35 Montclair CA
459 45-49 Female Edge Norma 1 02:38:39 00:37:30 00:01:48 01:01:11 00:01:59 00:56:10 36 Brea CA
68 40-44 Male Laponsey Jason 7 02:39:13 00:31:12 00:01:17 01:05:14 00:01:38 00:59:50 37 Dana Point CA
74 30-34 Female Ma Jacklyn 3 02:40:16 00:38:43 00:01:35 01:03:07 00:01:29 00:55:19 38 Los Angeles CA
53 35-39 Male Gray Nick 7 02:40:37 00:32:45 00:06:05 01:01:22 00:02:49 00:57:35 39 Redlands CA
46 50-54 Male Fox John 5 02:40:52 00:30:12 00:02:43 01:00:51 00:01:18 01:05:45 40 Glendale CA
128 15-17 Male Torres Antonio 2 02:41:12 00:29:28 00:02:49 01:14:29 00:00:53 00:53:31 41 Lancaster CA
2 35-39 Male Aceves Luis 8 02:41:28 00:39:22 00:02:18 01:04:09 00:01:28 00:54:07 42 Encino CA
87 50-54 Male Molieri Frank 6 02:42:31 00:36:11 00:01:18 00:59:54 00:01:18 01:03:48 43 Pasadena CA
85 45-49 Female Meraz Kim 2 02:42:56 00:33:59 00:02:17 01:03:24 00:02:05 01:01:09 44 Los Angeles CA
122 35-39 Male Suber Clinton 9 02:43:43 00:32:26 00:03:28 01:05:07 00:01:19 01:01:22 45 Van Nuys CA
145 40-44 Male Wong Inyork 8 02:44:35 00:36:34 00:01:40 01:00:08 00:01:36 01:04:35 46 Redondo Beach CA
79 25-29 Male Manos Nicholas 1 02:44:50 00:35:16 00:04:32 01:05:32 00:04:29 00:54:58 47 Los Angeles CA
141 25-29 Female Villegas Daniela 2 02:44:57 00:23:20 00:01:43 01:08:00 00:01:17 01:10:35 48 Bellflower CA
30 18-24 Male Chang Brian 3 02:44:58 00:27:36 00:02:49 01:04:09 00:01:18 01:09:04 49 Temple City CA
34 30-34 Male Cohen Sam 4 02:45:48 00:44:58 00:01:37 00:58:44 00:01:20 00:59:08 50 Burbank CA
31 30-34 Female Chatterson Courtney 4 02:46:51 00:35:36 00:02:14 01:07:30 00:01:14 01:00:15 51 Long Beach CA
65 30-34 Female Killeavy Caitlin 5 02:47:00 00:33:48 00:02:06 01:07:34 00:02:13 01:01:17 52 Los Angeles CA
37 55-59 Male Davis Bruce 4 02:47:37 00:32:03 00:02:09 01:05:02 00:01:38 01:06:43 53 Santa Clarita CA
38 60-64 Male Day James 1 02:47:50 00:37:52 00:01:36 01:01:16 00:01:32 01:05:32 54 Santa Clarita CA
76 45-49 Male Magana Carlos 6 02:50:51 00:41:53 00:03:13 01:14:24 00:02:16 00:49:03 55 Van Nuys CA
144 40-44 Male Wheeler James 9 02:51:07 00:37:27 00:02:19 01:08:04 00:01:48 01:01:26 56 Anaheim CA
93 35-39 Male O James 10 02:52:09 00:35:10 00:02:22 01:09:00 00:00:00 00:00:00 57 Rolling Hills Estate CA
460 18-24 Male Jon Jazi 4 02:52:17 00:31:04 00:03:58 01:09:18 00:01:30 01:06:25 58 Laguna Niguel CA
136 40-44 Male Valadez Ramon 10 02:53:19 00:38:22 00:03:11 01:03:57 00:02:27 01:05:19 59 Cerritos CA
130 55-59 Male Traylor Patrick 5 02:54:05 00:35:41 00:02:30 01:03:43 00:02:12 01:09:56 60 Los Alamitos CA
20 40-44 Male Brogdon Kirkland 11 02:54:07 00:37:00 00:02:52 01:01:50 00:00:00 00:00:00 61 Lakewood CA
19 40-44 Female Brogdon Jaime 1 02:54:22 00:29:24 00:02:33 01:00:59 00:03:11 01:18:14 62 Lakewood CA
111 35-39 Female Scharwath Kara 1 02:54:24 00:39:02 00:03:16 01:05:02 00:01:45 01:05:18 63 Los Angeles CA
463 35-39 Male Magana Omar 11 02:55:13 00:37:49 00:03:05 01:06:28 00:01:21 01:06:29 64 La Mirada CA
131 55-59 Male Tuccillo Peter 6 02:55:27 00:47:22 00:02:20 01:02:55 00:02:45 01:00:03 65 Culver City CA
42 40-44 Male Espiritu Mark 12 02:56:40 00:46:38 00:01:57 00:58:44 00:02:12 01:07:06 66 Valencia CA
107 60-64 Male Rupp David 2 02:57:18 00:34:08 00:03:33 01:03:57 00:01:30 01:14:08 67 Rancho Palos Verdes CA
5 25-29 Male Akrawin Jeff 2 02:58:40 00:38:23 00:02:05 01:12:00 00:00:00 00:00:00 68 Winnetka CA
90 40-44 Female Murray Emily 2 02:59:54 00:40:39 00:02:07 01:03:39 00:02:11 01:11:16 69 Los Angeles CA
146 45-49 Male Woolley Robert 7 03:00:22 00:37:01 00:02:13 01:02:16 00:01:51 01:16:59 70 Thousand Oaks CA
80 40-44 Male Martinez Julio 13 03:00:38 00:46:07 00:01:51 01:10:42 00:02:22 00:59:34 71 Northridge CA
62 40-44 Male Johnston Jesse James 14 03:00:52 00:38:36 00:04:05 01:07:00 00:04:15 01:06:55 72 Sherman Oaks CA
118 25-29 Female Silva Lina 3 03:01:18 00:32:03 00:04:30 01:17:58 00:01:18 01:05:26 73 Whittier CA
126 35-39 Male Thornburg Thatcher 12 03:02:26 00:40:25 00:03:39 01:06:15 00:01:37 01:10:27 74 La Crescenta CA
14 25-29 Female Borman Brittany 4 03:02:40 00:45:33 00:01:51 01:12:07 00:01:18 01:01:49 75 Murrieta CA
50 50-54 Male Garcia Roy 7 03:03:02 00:40:34 00:03:48 01:06:31 00:03:17 01:08:51 76 Northridge CA
45 50-54 Male Floriano Welison 8 03:04:57 00:35:52 00:06:22 01:11:19 00:05:08 01:06:15 77 Eagle Rock CA
61 55-59 Male Iwahori Norio 7 03:05:55 00:40:30 00:02:19 01:14:52 00:02:36 01:05:35 78 Northridge CA
112 35-39 Male Schmidt Andy 13 03:06:24 00:29:29 00:02:03 00:00:00 00:00:00 00:00:00 79 Culver City CA
72 30-34 Female Lopez Jacqueline 6 03:07:56 00:41:32 00:02:15 01:14:40 00:01:18 01:08:10 80 San Fernando CA
48 40-44 Male Fujiki Jason 15 03:08:13 00:40:30 00:02:44 01:20:39 00:03:11 01:01:07 81 Stevenson Rnh CA
22 50-54 Male Burdorf Gary 9 03:09:09 00:38:16 00:04:24 01:14:51 00:01:30 01:10:06 82 Pacific Palisades CA
6 40-44 Male Barillas Andy 16 03:09:45 00:46:49 00:02:27 01:06:07 00:01:13 01:13:08 83 Eastvale CA
92 25-29 Male Nahigian Brandon 3 03:10:14 00:31:26 00:02:13 01:06:16 00:00:00 00:00:00 84 La Canada Flintridge CA
123 40-44 Female Sugamata Akiko 3 03:12:23 00:31:15 00:02:19 01:12:08 00:01:40 01:24:59 85 La Canada CA
456 55-59 Female Anderson Lisa 2 03:12:32 00:44:05 00:02:36 01:15:04 00:02:18 01:08:27 86 Ventura CA
33 60-64 Female Cholawsky Elizabeth 1 03:13:35 00:48:05 00:02:04 01:08:09 00:01:41 01:13:34 87 Santa Barbara CA
4 55-59 Male Aguilar Oscar 8 03:13:36 00:45:18 00:03:36 01:07:42 00:02:48 01:14:11 88 Burbank CA
135 18-24 Female Twisk Dana 2 03:13:37 00:24:27 00:02:53 01:20:46 00:01:28 01:24:02 89 Tustin CA
137 18-24 Female Vas Alicia 3 03:13:38 00:25:52 00:02:28 01:17:51 00:00:36 01:26:48 90 Yorba Linda CA
7 18-24 Female Bass Mariah 4 03:14:07 00:34:15 00:03:08 01:22:08 00:00:00 00:00:00 91 Costa Mesa CA
8 25-29 Female Bazley Claire 5 03:14:07 00:40:10 00:05:21 01:14:33 00:03:36 01:10:26 92 Los Angeles CA
40 40-44 Male Demonbrun Christopher 17 03:14:57 00:32:28 00:03:55 01:11:30 00:02:37 01:24:26 93 Pasadena CA
125 40-44 Male Sunga Jesus 18 03:15:04 01:02:15 00:01:55 01:04:16 00:02:01 01:04:36 94 Carson CA
21 50-54 Female Bruna Ana 1 03:15:10 00:50:06 00:02:56 01:05:37 00:01:58 01:14:32 95 Altadena CA
24 40-44 Male Bustos Fernando 19 03:17:26 00:43:52 00:02:22 01:09:22 00:01:47 01:20:01 96 Saugus CA
54 45-49 Female Halter Lisa 3 03:18:45 00:44:38 00:03:37 01:15:48 00:02:41 01:11:59 97 Granada Hills CA
457 25-29 Male Avetisyan Raffi 4 03:19:05 00:44:47 00:04:42 01:10:47 00:03:44 01:15:03 98 Burbank CA
98 40-44 Female Pirih Flavia 4 03:19:06 00:43:01 00:03:50 01:10:58 00:01:58 01:19:17 99 Valley Village CA
120 55-59 Female Soash Kimberly 3 03:19:19 00:52:24 00:02:40 01:13:37 00:01:59 01:08:37 100 Granada Hills CA
Notes Pages Download Filter By
  [1] 2




Keyword Exact  
Division

Bib Division Last Name First Name Division Place Gun Swim T1 Bike T2 Run Overall City State
169 35-39 Male Bena Timothy 1 00:00:00 00:11:40 00:01:42 00:50:04 00:00:00 00:00:00 0 Los Angeles CA
192 45-49 Male Chan Gilbert 1 00:00:00 00:18:13 00:00:00 00:00:00 00:00:00 00:00:00 0 S Pasadena CA
277 30-34 Male Marquez Paris Enrique 1 01:02:06 00:10:03 00:01:03 00:27:32 00:01:02 00:22:24 1 Sherman Oaks CA
365 15-17 Male White Ashton 1 01:02:49 00:09:09 00:00:41 00:28:38 00:01:12 00:23:05 2 Oak Park CA
303 35-39 Male Ochoa Fabian 2 01:03:36 00:12:18 00:01:01 00:28:57 00:00:43 00:20:36 3 Piru CA
243 30-34 Male Hill Aaron 2 01:04:47 00:09:58 00:01:10 00:28:34 00:00:50 00:24:13 4 Simi Valley CA
349 30-34 Male Burkett Steven 3 01:05:24 00:09:43 00:00:36 00:29:31 00:00:43 00:24:48 5 La Mirada CA
171 50-54 Male Bentz William 1 01:06:29 00:12:51 00:01:00 00:29:11 00:00:32 00:22:54 6 Lancaster CA
227 40-44 Male Garcia Luis 1 01:06:37 00:10:58 00:00:52 00:30:44 00:00:45 00:23:15 7 Reseda CA
370 55-59 Male Covert Todd 1 01:06:49 00:11:12 00:02:04 00:30:16 00:00:55 00:22:20 8 Northridge CA
369 25-29 Male Cole Cameron 1 01:06:52 00:10:35 00:01:47 00:29:46 00:01:41 00:23:01 9 Corona CA
376 40-44 Male Murray Finnian 2 01:07:07 00:12:41 00:01:03 00:27:53 00:01:09 00:24:20 10 Los Angeles CA
328 25-29 Male Rogers Jimmy 2 01:09:07 00:08:08 00:02:29 00:34:32 00:00:45 00:23:12 11 Canoga Park CA
335 25-29 Male Sakamoto Garet 3 01:09:38 00:09:36 00:00:57 00:34:04 00:00:43 00:24:16 12 Whittier CA
212 30-34 Female Dupuy Jess 1 01:09:40 00:11:07 00:01:13 00:34:01 00:00:50 00:22:28 13 Los Angeles CA
287 40-44 Male Mcintosh Kyle 3 01:11:36 00:10:42 00:02:04 00:31:37 00:01:18 00:25:52 14 Newbury Park CA
334 55-59 Male Rutkowski Mark 2 01:11:51 00:09:59 00:01:20 00:32:24 00:00:00 00:00:00 15 La Canada CA
378 50-54 Male Mejia Fernando 2 01:12:17 00:09:16 00:02:49 00:34:50 00:02:08 00:23:11 16 La Crescenta CA
288 40-44 Male Merrill Josh 4 01:12:57 00:10:53 00:01:06 00:30:57 00:00:53 00:29:06 17 Porter Ranch CA
399 40-44 Male Stephens Thoryn 5 01:13:28 00:12:17 00:00:58 00:31:53 00:00:52 00:27:26 18 Venice CA
206 30-34 Male Denton Chris 4 01:13:42 00:09:29 00:01:26 00:35:20 00:00:39 00:26:46 19 Sun Valley CA
184 40-44 Male Burghardt West 6 01:14:28 00:14:19 00:01:29 00:30:49 00:01:04 00:26:46 20 Los Angeles CA
474 30-34 Female Miscia Dana 2 01:15:32 00:11:49 00:01:18 00:32:52 00:01:46 00:27:44 21 Montclair NJ
342 25-29 Male Smith Marc 4 01:15:39 00:12:29 00:02:23 00:35:03 00:00:34 00:25:08 22 Pasadena CA
273 50-54 Male Lyons Kevin 3 01:16:01 00:12:50 00:01:42 00:32:41 00:00:00 00:00:00 23 Canoga Park CA
175 45-49 Male Borenstein Guy 2 01:16:16 00:11:27 00:01:41 00:31:17 00:01:23 00:30:26 24 Sherman Oaks CA
234 35-39 Male Goodwin Gabriel 3 01:16:30 00:11:05 00:02:27 00:39:09 00:00:41 00:23:05 25 Marina Dl Rey CA
246 35-39 Male Holowach David 4 01:16:31 00:11:07 00:01:51 00:32:25 00:01:06 00:29:59 26 Santa Clarita CA
185 30-34 Male Byfield Elliot 5 01:16:44 00:10:42 00:01:37 00:34:31 00:01:21 00:28:31 27 Tarzana CA
248 25-29 Female Jameson Stephanie 1 01:17:23 00:13:40 00:01:23 00:34:42 00:00:59 00:26:36 28 Glendale CA
305 40-44 Male Olivieri Diego 7 01:17:28 00:10:29 00:01:17 00:33:27 00:01:01 00:31:12 29 Walnut CA
275 18-24 Male Magadan Andrew 1 01:17:34 00:11:56 00:01:14 00:36:24 00:01:00 00:26:58 30 Chatsworth CA
289 50-54 Male Miguelena Matt 4 01:17:35 00:12:53 00:02:24 00:33:05 00:01:39 00:27:30 31 Moorpark CA
323 25-29 Male Rivera Emmanuel 5 01:17:36 00:12:59 00:03:19 00:34:59 00:00:36 00:25:41 32 Arleta CA
372 60-64 Male Grady Thomas 1 01:17:36 00:11:58 00:02:59 00:37:09 00:00:48 00:24:40 33 Palmdale CA
210 25-29 Male Downs Sean 6 01:18:01 00:12:07 00:03:26 00:32:46 00:01:45 00:27:55 34 Valencia CA
382 50-54 Male Fleming Mark 5 01:18:16 00:09:28 00:02:25 00:32:27 00:01:49 00:32:04 35 Glendale CA
215 30-34 Female Englender Samantha 3 01:18:21 00:11:00 00:02:49 00:34:46 00:01:52 00:27:53 36 La CA
220 55-59 Male Flora Joseph 3 01:18:42 00:14:54 00:02:44 00:33:44 00:01:39 00:25:40 37 Simi Valley CA
254 60-64 Male Jones Jeff 2 01:18:51 00:11:59 00:01:15 00:32:54 00:01:10 00:31:31 38 Corona CA
394 65-69 Male Solomon Gil 1 01:19:08 00:12:42 00:02:21 00:34:09 00:00:00 00:00:00 39 West Hills CA
294 30-34 Female Newacheck Haley 4 01:19:21 00:12:51 00:02:02 00:36:40 00:00:53 00:26:53 40 Van Nuys CA
238 25-29 Male Harman Thomas 7 01:19:50 00:11:17 00:01:40 00:33:27 00:01:14 00:32:11 41 Van Nuys CA
374 40-44 Female Reeves Tina 1 01:20:05 00:12:36 00:01:20 00:34:07 00:01:32 00:30:28 42 Granada Hills CA
253 50-54 Female Jones Detra 1 01:20:20 00:13:16 00:01:38 00:32:23 00:01:09 00:31:51 43 Playa Del Rey CA
199 50-54 Male Conway Chuck 6 01:20:22 00:10:32 00:02:37 00:31:47 00:01:41 00:33:43 44 Oak Park CA
390 55-59 Male Wood Lance 4 01:20:34 00:12:53 00:02:13 00:34:50 00:01:50 00:28:47 45 Irvine CA
190 35-39 Male Capuano Jeff 5 01:20:36 00:13:19 00:03:45 00:34:05 00:02:10 00:27:15 46 Saugus CA
371 25-29 Female Rebozzi Michele 2 01:20:39 00:12:54 00:01:36 00:35:51 00:01:42 00:28:33 47 Azusa CA
164 45-49 Male Augliera Gianluca 3 01:21:04 00:20:24 00:01:38 00:33:26 00:01:12 00:24:23 48 Glendale CA
188 40-44 Female Campbell Mary Kay 2 01:21:20 00:13:51 00:01:14 00:35:15 00:00:43 00:30:15 49 Los Angeles CA
249 35-39 Male Jatene Rodrigo 6 01:21:39 00:13:04 00:02:29 00:37:43 00:02:31 00:25:50 50 Los Angeles CA
250 30-34 Male Jimenez Andres 6 01:21:46 00:11:37 00:02:58 00:41:27 00:01:05 00:24:37 51 Sylmar CA
223 45-49 Female Franco Evelyn 1 01:21:46 00:13:23 00:01:36 00:35:57 00:01:22 00:29:27 52 Pasadena CA
231 25-29 Male Giragosian Shawn 8 01:21:57 00:13:19 00:02:47 00:37:46 00:01:13 00:26:49 53 Thousand Oaks CA
397 50-54 Female Pizzareli Annalisa 2 01:22:11 00:10:20 00:03:23 00:33:46 00:02:12 00:32:27 54 Westlake Village CA
258 40-44 Female Kalan Karen 3 01:22:15 00:14:37 00:02:54 00:37:06 00:01:36 00:25:59 55 Encino CA
346 15-17 Male Sujo Timothy 2 01:22:24 00:15:48 00:03:30 00:37:44 00:01:53 00:23:27 56 Arcadia CA
244 12-14 Male Ho Philson 1 01:22:39 00:10:11 00:02:40 00:44:08 00:00:38 00:25:00 57 South Pasadena CA
354 35-39 Male Trollip Hendrik 7 01:22:42 00:17:00 00:02:03 00:31:13 00:01:06 00:31:19 58 Tarzana CA
351 75-79 Male Tarnay Matt 1 01:22:45 00:10:19 00:01:13 00:37:36 00:01:03 00:32:33 59 Torrance CA
309 50-54 Male Page John 7 01:23:02 00:13:08 00:01:25 00:34:24 00:00:56 00:33:07 60 Las Vegas NV
170 45-49 Female Benedict Mollie 2 01:23:13 00:12:31 00:02:21 00:38:04 00:00:53 00:29:21 61 Encino CA
398 40-44 Female Gregorian Emineh 4 01:23:13 00:11:49 00:02:07 00:37:22 00:01:39 00:30:14 62 Tujunga CA
155 50-54 Male Acosta Jorge 8 01:23:32 00:15:03 00:01:46 00:32:21 00:01:09 00:33:12 63 Fullerton CA
266 18-24 Female Lee Irene 1 01:23:41 00:10:28 00:02:58 00:40:05 00:01:14 00:28:54 64 S Pasadena CA
306 50-54 Female Olivieri Rebecca 3 01:23:57 00:15:58 00:01:27 00:34:29 00:00:00 00:00:00 65 Walnut CA
336 30-34 Male Sanson Bryan 7 01:24:14 00:14:22 00:02:46 00:34:59 00:00:56 00:31:11 66 Panorama City CA
208 40-44 Male Dong Rodney 8 01:24:18 00:14:11 00:03:56 00:36:39 00:01:03 00:28:26 67 Valencia CA
213 25-29 Female Eckerman Arielle 3 01:24:18 00:12:49 00:02:21 00:36:30 00:01:34 00:31:02 68 Malibu CA
341 50-54 Male Slingerland Rob 9 01:24:20 00:13:46 00:04:11 00:34:59 00:02:34 00:28:47 69 Encino CA
381 55-59 Male McLaughlin John 5 01:24:34 00:14:36 00:01:16 00:33:13 00:01:17 00:34:10 70 Los Angeles CA
298 45-49 Female Noreen Kirstin 3 01:24:36 00:13:24 00:02:07 00:37:21 00:00:57 00:30:45 71 Los Angeles CA
237 50-54 Female Hansen Debbie 4 01:24:46 00:13:12 00:02:09 00:33:05 00:02:06 00:34:12 72 Ventura CA
162 45-49 Female Andrade Audra 4 01:25:09 00:14:21 00:03:23 00:35:33 00:01:41 00:30:09 73 San Fernando CA
218 35-39 Male Fick Justin 8 01:25:11 00:13:27 00:03:32 00:33:28 00:02:14 00:32:29 74 Las Vegas NV
202 18-24 Male Cruz Michael 2 01:25:19 00:14:31 00:02:19 00:33:07 00:01:39 00:33:41 75 Ontario CA
230 40-44 Male Getz Pete 9 01:25:26 00:15:18 00:01:59 00:36:39 00:01:27 00:30:00 76 Valencia CA
350 45-49 Male Tapia Mark 4 01:25:27 00:14:47 00:02:29 00:31:41 00:02:54 00:33:33 77 Sylmar CA
222 25-29 Male Ford Michael 9 01:25:27 00:13:46 00:02:23 00:40:34 00:01:17 00:27:25 78 Cranford NJ
396 18-24 Male Lam Chun Lok 3 01:25:43 00:11:45 00:02:31 00:38:21 00:01:04 00:32:01 79 Cerritos CA
168 35-39 Male Ben-hain Brad 9 01:25:59 00:13:49 00:01:49 00:35:47 00:01:22 00:33:10 80 Granada Hills CA
214 50-54 Female Elliott Teresa 5 01:26:21 00:13:19 00:01:51 00:37:31 00:01:24 00:32:15 81 North Hollywood CA
172 40-44 Female Bergeron Jill 5 01:26:32 00:13:31 00:01:40 00:40:47 00:01:05 00:29:28 82 Pasadena CA
196 18-24 Female Chen Samantha 2 01:26:53 00:13:34 00:02:49 00:40:41 00:00:38 00:29:09 83 Temple City CA
345 45-49 Male Sujo Carl 5 01:26:58 00:15:47 00:02:45 00:34:31 00:01:59 00:31:54 84 Arcadia CA
358 50-54 Male Valenzuela Juan 10 01:27:09 00:17:15 00:03:08 00:37:28 00:02:25 00:26:51 85 Panorama City CA
233 35-39 Male Gonzalez Stephen 10 01:27:09 00:14:04 00:03:12 00:37:05 00:02:01 00:30:45 86 Los Angeles CA
160 18-24 Male Almuzaini Muzaini 4 01:27:41 00:15:30 00:01:27 00:38:52 00:01:02 00:30:48 87 Woodland Hills CA
245 50-54 Female Hoffman Jill 6 01:28:18 00:12:52 00:03:12 00:40:27 00:01:56 00:29:48 88 Los Angeles CA
278 45-49 Male Martell James 6 01:28:47 00:15:31 00:01:40 00:33:25 00:01:58 00:36:12 89 Sun Valley CA
312 40-44 Male Pena Marvin 10 01:29:35 00:18:00 00:02:37 00:40:52 00:01:23 00:26:41 90 Northridge CA
356 35-39 Male Umali Lloyd 11 01:29:40 00:15:14 00:02:32 00:35:24 00:02:57 00:33:30 91 Burbank CA
161 55-59 Female Amiram Ilana 1 01:29:57 00:13:31 00:03:10 00:37:28 00:01:52 00:33:53 92 Sherman Oaks CA
339 45-49 Male Seropian Alexander 7 01:30:07 00:17:58 00:02:32 00:41:50 00:01:23 00:26:23 93 La Canada CA
263 40-44 Female Labianca Alexa 6 01:30:08 00:13:18 00:01:16 00:41:03 00:00:45 00:33:45 94 Encino CA
204 35-39 Male Demoss Dean 12 01:30:11 00:17:48 00:04:00 00:36:15 00:01:20 00:30:45 95 Simi Valley CA
193 15-17 Female Chang Crystal 1 01:30:17 00:12:34 00:02:18 00:39:38 00:01:09 00:34:35 96 Temple City CA
247 50-54 Male Hunt Greg 11 01:30:31 00:12:40 00:03:01 00:39:15 00:01:55 00:33:38 97 Woodland Hills CA
293 30-34 Male Newacheck Adam 8 01:30:34 00:12:15 00:01:57 00:40:11 00:00:59 00:35:10 98 Van Nuys CA
Notes Pages Download Filter By
 




Keyword Exact  
Division

Bib Division Last Name First Name Division Place Gun Swim T1 Bike T2 Run Overall City State
391 0-99 Male Camp Arnie 1 01:08:19 00:11:30 00:01:54 00:32:02 00:00:51 00:21:59 1 Thousand Oaks CA
257 0-99 Male Kabli Moe 2 01:20:25 00:12:18 00:03:59 00:36:08 00:01:49 00:26:08 2 Monrovia CA
276 0-99 Male Mann Steven 3 01:25:38 00:11:50 00:05:00 00:36:04 00:03:41 00:29:01 3 Los Angeles CA
191 0-99 Female Cardenas Medina Natalie 1 01:26:37 00:14:08 00:02:02 00:33:31 00:01:38 00:35:16 4 La CA
321 0-99 Male Reyes Gary 4 01:30:51 00:12:14 00:03:06 00:40:06 00:02:24 00:33:00 5 Chino CA
340 0-99 Female Sheppard Jessica 2 01:32:06 00:16:19 00:03:03 00:37:45 00:01:45 00:33:12 6 Chatsworth CA
264 0-99 Female Lara Alexandra 3 01:34:16 00:12:47 00:02:03 00:39:11 00:02:04 00:38:08 7 Los Angeles CA
315 0-99 Female Pledger Maria-renee 4 02:07:10 00:26:42 00:03:56 00:50:26 00:01:12 00:44:51 8 Lake View Terrace CA
116 0-99 Male Seminario Jean Pierre 5 02:16:26 00:00:00 00:00:00 00:00:00 00:00:00 00:00:00 9 Valencia CA
113 0-99 Male Schwab Joshua 6 02:25:04 00:31:08 00:02:15 00:57:04 00:02:10 00:52:24 10 Irvine CA
29 0-99 Male Cecil Matthew 7 02:46:48 00:35:15 00:03:58 01:04:16 00:02:43 01:00:35 11 Ladera Ranch CA
55 0-99 Female Hamilton Judy 5 02:47:24 00:33:35 00:01:48 01:05:11 00:00:00 00:00:00 12 Anaheim CA
105 0-99 Male Robertson Brian 8 02:49:03 00:30:45 00:02:26 01:09:32 00:02:23 01:03:55 13 Ladera Ranch CA
117 0-99 Male Serna Rafael 9 02:53:48 00:40:17 00:03:06 01:06:29 00:01:48 01:02:06 14 Hacienda Heights CA
102 0-99 Male Raquel George 10 03:01:46 00:36:59 00:02:34 00:56:56 00:01:33 01:23:42 15 Chatsworth CA
127 0-99 Male Tibazi Noah 11 03:05:05 00:25:54 00:03:18 01:17:19 00:01:06 01:17:26 16 Arleta CA
103 0-99 Male Rathner Russell 12 03:07:11 00:36:08 00:02:41 01:09:10 00:02:23 01:16:47 17 Los Angeles CA
83 0-99 Male Mayorga Johnny 13 03:07:41 00:40:26 00:04:12 01:03:48 00:02:23 01:16:50 18 Los Angeles CA
69 0-99 Male Lee William 14 03:16:24 00:37:45 00:05:05 01:09:00 00:06:36 01:17:57 19 Simi Valley CA
115 0-99 Male Sedrak Mark 15 03:20:50 00:45:10 00:05:55 01:10:05 00:02:44 01:16:54 20 Tarzana CA
148 0-99 Male Yakushi Jose 16 03:24:41 00:37:37 00:02:30 01:02:40 00:02:16 01:39:36 21 Monterey Park CA
56 0-99 Male Healy Dougg 17 03:41:08 00:45:03 00:05:14 01:18:45 00:04:44 01:27:20 22 Canyon Country CA
73 0-99 Male Loveres Edward 18 03:58:20 00:54:20 00:02:05 01:12:17 00:02:08 01:47:27 23 Lakewood CA
Notes Pages Download Filter By
 




Keyword Exact  
Division

Bib First Name Last Name Team Name Gun Swim T1 Bike T2 Run Overall
154 Luis Tinajero Triple Threat 01:12:02 00:10:36 00:00:52 00:35:13 00:00:26 00:24:54 1
154 Joe Calles Triple Threat 01:12:02 00:10:36 00:00:52 00:35:13 00:00:26 00:24:54 1
154 Orlando Moreno Triple Threat 01:12:02 00:10:36 00:00:52 00:35:13 00:00:26 00:24:54 1
152 Michael Kelleher Team Fun Family 01:23:45 00:15:30 00:00:43 00:32:11 00:00:33 00:34:46 2
152 Danielle James Team Fun Family 01:23:45 00:15:30 00:00:43 00:32:11 00:00:33 00:34:46 2
152 Mark James Team Fun Family 01:23:45 00:15:30 00:00:43 00:32:11 00:00:33 00:34:46 2
153 Lisa Jones Angry Birds 01:27:13 00:15:11 00:00:46 00:39:11 00:02:07 00:29:57 3
153 Cathy Martin Angry Birds 01:27:13 00:15:11 00:00:46 00:39:11 00:02:07 00:29:57 3
389 Logan Cornellison 01:45:25 00:16:12 00:00:41 00:53:03 00:00:46 00:34:41 4
389 Rebecca Mielinwock 01:45:25 00:16:12 00:00:41 00:53:03 00:00:46 00:34:41 4
1 Lewis Gillis Nominal Ascent 02:04:04 00:24:15 00:00:43 00:55:56 00:00:32 00:42:36 1
1 Emanuele Di Stasio Nominal Ascent 02:04:04 00:24:15 00:00:43 00:55:56 00:00:32 00:42:36 1
1 Ryan Kuhn Nominal Ascent 02:04:04 00:24:15 00:00:43 00:55:56 00:00:32 00:42:36 1
Notes Pages Download Filter By
 




Keyword Exact  
Division

Bib Division Last Name First Name Division Place Gun Swim T1 Bike T2 Run Overall City State
471 0-99 Male Mongan Ryan 1 01:00:55 00:11:15 00:00:51 00:26:13 00:00:38 00:21:57 1 Orange CA
326 0-99 Male Rodriguez Alvaro 2 01:04:22 00:11:45 00:00:45 00:29:58 00:00:47 00:21:05 2 Pacoima CA
472 0-99 Male Jacobsen Tyson 3 01:08:50 00:10:44 00:01:06 00:28:42 00:00:43 00:27:33 3
Notes Pages Download Filter By
 




Keyword Exact  
Division

Bib Division Last Name First Name Division Place Gun Swim T1 Bike T2 Run Overall City State
300 0-99 Female O'brien Brandi 1 00:00:00 00:56:30 00:02:20 00:41:34 00:02:04 00:00:00 0 Lakewood CA
151 0-99 Male Acosta Hugo 1 01:18:06 00:00:00 00:00:00 00:35:38 00:00:31 00:29:52 1 Burbank CA
151 0-99 Female Acosta Maria F 2 01:18:06 00:00:00 00:00:00 00:35:38 00:00:31 00:29:52 2 Burbank CA
151 0-99 Female Lopez Gomez Sylvana 3 01:18:06 00:00:00 00:00:00 00:35:38 00:00:31 00:29:52 3 Burbank CA
295 0-99 Male Ngugi James 2 01:25:25 00:14:12 00:03:58 00:36:38 00:01:01 00:29:34 4 Santa Clarita CA
236 0-99 Female Hamatsu Momoko 4 01:29:40 00:09:51 00:02:50 00:41:02 00:01:46 00:34:08 5 Burbank CA
203 0-99 Male Dacumos Michael 3 01:30:22 00:00:00 00:00:00 00:42:06 00:00:00 00:00:00 6 Valencia CA
297 0-99 Male Nisperos Matt 4 01:30:38 00:17:00 00:02:10 00:39:53 00:00:53 00:30:39 7 Los Angeles CA
183 0-99 Male Buendia Eric 5 01:38:19 00:19:44 00:03:47 00:38:22 00:02:27 00:33:57 8 Burbank CA
395 0-99 Male Sepulveda Lamar 6 01:41:55 00:40:53 00:00:47 00:31:51 00:00:34 00:27:49 9 Los Angeles CA
255 0-99 Female Juarez Angelica 5 01:46:13 00:16:46 00:07:27 00:52:41 00:02:40 00:26:38 10 Burbank CA
94 0-99 Male Olguin Eduardo 7 01:57:06 00:00:00 00:00:00 00:00:00 00:00:00 00:00:00 11 Canoga Park CA
200 0-99 Female Cordero Cherry 6 01:58:32 00:17:15 00:04:25 00:56:07 00:02:01 00:38:40 12 Los Angeles CA
150 0-99 Female Yoshii Sara 7 02:29:13 00:26:32 00:03:19 00:41:59 00:01:08 01:16:12 13 Riverside CA
121 0-99 Male Somaratne Shivan 8 02:35:30 00:39:42 00:02:21 00:38:13 00:02:57 01:12:16 14 Simi Valley CA
88 0-99 Male Montoya Jacob 9 02:37:45 00:00:00 00:00:00 01:23:14 00:01:55 01:05:23 15 Altadena CA
104 0-99 Female Redington Cecile 8 02:38:05 00:32:41 00:08:14 00:40:38 00:06:16 01:10:14 16 Los Angeles CA